createdAt,value
2022-07-31T00:00:55.660Z,100.00
2022-07-31T00:03:24.656Z,100.00
2022-07-31T00:05:53.511Z,100.00
2022-07-31T00:08:22.345Z,100.00
2022-07-31T00:10:51.188Z,100.00
2022-07-31T00:13:56.310Z,100.00
2022-07-31T00:16:10.843Z,100.00
2022-07-31T00:18:39.776Z,100.00
2022-07-31T00:21:08.631Z,100.00
2022-07-31T00:23:37.412Z,100.00
2022-07-31T00:26:06.267Z,100.00
2022-07-31T00:28:37.598Z,100.00
2022-07-31T00:31:06.517Z,100.00
2022-07-31T00:33:38.283Z,100.00
2022-07-31T00:36:08.199Z,100.00
2022-07-31T00:38:37.016Z,100.00
2022-07-31T00:41:05.948Z,100.00
2022-07-31T00:43:36.315Z,100.00
2022-07-31T00:46:05.090Z,100.00
2022-07-31T00:48:34.903Z,100.00
2022-07-31T00:51:05.424Z,100.00
2022-07-31T00:53:34.382Z,100.00
2022-07-31T00:56:03.169Z,100.00
2022-07-31T00:58:32.070Z,100.00
2022-07-31T01:01:02.391Z,100.00
2022-07-31T01:03:32.310Z,100.00
2022-07-31T01:06:01.031Z,100.00
2022-07-31T01:08:29.884Z,100.00
2022-07-31T01:11:05.736Z,100.00
2022-07-31T01:13:49.172Z,100.00
2022-07-31T01:16:20.125Z,100.00
2022-07-31T01:18:52.187Z,100.00
2022-07-31T01:21:25.405Z,100.00
2022-07-31T01:24:13.451Z,100.00
2022-07-31T01:27:27.083Z,100.00
2022-07-31T01:30:02.470Z,100.00
2022-07-31T01:32:37.284Z,100.00
2022-07-31T01:35:16.759Z,100.00
2022-07-31T01:37:51.898Z,100.00
2022-07-31T01:40:24.602Z,100.00
2022-07-31T01:43:06.614Z,100.00
2022-07-31T01:45:40.404Z,100.00
2022-07-31T01:48:12.463Z,100.00
2022-07-31T01:50:44.405Z,100.00
2022-07-31T01:53:16.282Z,100.00
2022-07-31T01:56:02.371Z,100.00
2022-07-31T01:58:39.138Z,100.00
2022-07-31T02:01:27.473Z,100.00
2022-07-31T02:04:00.679Z,100.00
2022-07-31T02:06:32.946Z,100.00
2022-07-31T02:09:04.320Z,100.00
2022-07-31T02:11:33.385Z,100.00
2022-07-31T02:14:17.695Z,100.00
2022-07-31T02:16:50.147Z,100.00
2022-07-31T02:19:26.786Z,100.00
2022-07-31T02:21:57.560Z,100.00
2022-07-31T02:24:26.513Z,100.00
2022-07-31T02:26:56.061Z,100.00
2022-07-31T02:29:26.080Z,100.00
2022-07-31T02:32:09.842Z,100.00
2022-07-31T02:34:40.145Z,100.00
2022-07-31T02:37:10.749Z,100.00
2022-07-31T02:39:41.159Z,100.00
2022-07-31T02:42:10.808Z,100.00
2022-07-31T02:44:40.525Z,100.00
2022-07-31T02:47:12.365Z,100.00
2022-07-31T02:49:45.765Z,100.00
2022-07-31T02:52:14.881Z,100.00
2022-07-31T02:54:45.403Z,100.00
2022-07-31T02:57:14.259Z,100.00
2022-07-31T02:59:44.101Z,100.00
2022-07-31T03:02:15.919Z,100.00
2022-07-31T03:04:46.858Z,100.00
2022-07-31T03:07:18.199Z,100.00
2022-07-31T03:09:49.727Z,100.00
2022-07-31T03:12:38.017Z,100.00
2022-07-31T03:15:11.013Z,100.00
2022-07-31T03:17:43.023Z,100.00
2022-07-31T03:20:15.915Z,100.00
2022-07-31T03:22:45.242Z,100.00
2022-07-31T03:25:20.040Z,100.00
2022-07-31T03:27:56.358Z,100.00
2022-07-31T03:30:26.874Z,100.00
2022-07-31T03:33:02.881Z,100.00
2022-07-31T03:35:34.284Z,100.00
2022-07-31T03:38:38.675Z,100.00
2022-07-31T03:40:58.825Z,100.00
2022-07-31T03:43:29.826Z,100.00
2022-07-31T03:46:15.549Z,100.00
2022-07-31T03:48:46.277Z,100.00
2022-07-31T03:51:15.687Z,100.00
2022-07-31T03:53:44.964Z,100.00
2022-07-31T03:56:32.377Z,100.00
2022-07-31T03:59:01.158Z,100.00
2022-07-31T04:01:57.730Z,100.00
2022-07-31T04:04:39.008Z,100.00
2022-07-31T04:07:07.964Z,100.00
2022-07-31T04:09:37.035Z,100.00
2022-07-31T04:12:07.876Z,100.00
2022-07-31T04:14:36.917Z,100.00
2022-07-31T04:17:06.498Z,100.00
2022-07-31T04:19:36.740Z,100.00
2022-07-31T04:22:06.929Z,100.00
2022-07-31T04:24:36.080Z,100.00
2022-07-31T04:27:17.957Z,100.00
2022-07-31T04:29:49.290Z,100.00
2022-07-31T04:32:18.347Z,100.00
2022-07-31T04:35:03.342Z,100.00
2022-07-31T04:37:34.276Z,100.00
2022-07-31T04:40:04.082Z,100.00
2022-07-31T04:42:32.999Z,100.00
2022-07-31T04:45:02.924Z,100.00
2022-07-31T04:47:32.629Z,100.00
2022-07-31T04:50:02.999Z,100.00
2022-07-31T04:52:32.920Z,100.00
2022-07-31T04:55:08.357Z,100.00
2022-07-31T04:57:37.924Z,100.00
2022-07-31T05:00:09.678Z,100.00
2022-07-31T05:02:38.922Z,100.00
2022-07-31T05:05:09.837Z,100.00
2022-07-31T05:07:44.053Z,100.00
2022-07-31T05:10:35.188Z,100.00
2022-07-31T05:13:04.432Z,100.00
2022-07-31T05:15:35.160Z,100.00
2022-07-31T05:18:04.461Z,100.00
2022-07-31T05:20:53.194Z,100.00
2022-07-31T05:23:29.547Z,100.00
2022-07-31T05:26:18.710Z,100.00
2022-07-31T05:28:49.567Z,100.00
2022-07-31T05:31:19.883Z,99.43
2022-07-31T05:33:51.525Z,99.44
2022-07-31T05:36:22.749Z,99.58
2022-07-31T05:38:51.652Z,97.20
2022-07-31T05:41:39.045Z,95.28
2022-07-31T05:44:26.819Z,94.89
2022-07-31T05:49:26.869Z,93.36
2022-07-31T05:51:58.611Z,89.79
2022-07-31T05:54:27.550Z,89.92
2022-07-31T05:57:32.882Z,87.03
2022-07-31T06:00:04.009Z,85.08
2022-07-31T06:02:40.626Z,84.53
2022-07-31T06:05:23.821Z,86.99
2022-07-31T06:07:54.448Z,84.99
2022-07-31T06:10:24.175Z,83.85
2022-07-31T06:12:53.268Z,84.78
2022-07-31T06:15:22.129Z,84.91
2022-07-31T06:17:52.195Z,83.19
2022-07-31T06:20:30.943Z,82.53
2022-07-31T06:23:01.713Z,80.93
2022-07-31T06:25:39.101Z,79.78
2022-07-31T06:28:10.589Z,81.17
2022-07-31T06:30:41.714Z,81.58
2022-07-31T06:33:15.904Z,82.79
2022-07-31T06:35:49.417Z,84.58
2022-07-31T06:38:46.404Z,85.06
2022-07-31T06:41:47.396Z,87.70
2022-07-31T06:44:46.019Z,82.21
2022-07-31T06:47:23.772Z,81.13
2022-07-31T06:50:11.778Z,82.44
2022-07-31T06:52:44.322Z,81.80
2022-07-31T06:55:15.492Z,78.85
2022-07-31T06:57:44.352Z,79.06
2022-07-31T07:00:19.890Z,78.49
2022-07-31T07:02:52.282Z,76.83
2022-07-31T07:05:21.774Z,75.50
2022-07-31T07:07:54.060Z,73.77
2022-07-31T07:10:24.810Z,75.99
2022-07-31T07:13:02.359Z,78.15
2022-07-31T07:15:35.438Z,75.58
2022-07-31T07:18:04.513Z,76.32
2022-07-31T07:20:55.069Z,71.76
2022-07-31T07:23:24.293Z,71.21
2022-07-31T07:26:10.589Z,69.75
2022-07-31T07:28:40.165Z,67.54
2022-07-31T07:31:11.232Z,67.50
2022-07-31T07:33:42.761Z,65.39
2022-07-31T07:36:23.124Z,63.48
2022-07-31T07:38:56.635Z,62.98
2022-07-31T07:41:27.987Z,61.49
2022-07-31T07:43:57.063Z,62.23
2022-07-31T07:46:28.988Z,60.46
2022-07-31T07:49:06.840Z,58.54
2022-07-31T07:51:59.027Z,57.54
2022-07-31T07:54:41.224Z,57.52
2022-07-31T07:57:49.353Z,56.67
2022-07-31T08:00:53.290Z,58.58
2022-07-31T08:03:48.619Z,54.32
2022-07-31T08:06:11.495Z,54.39
2022-07-31T08:08:41.167Z,54.55
2022-07-31T08:11:30.150Z,53.99
2022-07-31T08:14:09.696Z,52.29
2022-07-31T08:16:58.654Z,52.31
2022-07-31T08:19:27.639Z,53.26
2022-07-31T08:21:57.323Z,49.42
2022-07-31T08:24:26.783Z,46.99
2022-07-31T08:27:13.603Z,45.18
2022-07-31T08:29:45.903Z,45.57
2022-07-31T08:32:19.283Z,44.77
2022-07-31T08:35:06.962Z,46.64
2022-07-31T08:37:52.025Z,45.76
2022-07-31T08:40:28.857Z,43.16
2022-07-31T08:42:58.176Z,42.69
2022-07-31T08:45:38.648Z,42.38
2022-07-31T08:48:25.661Z,43.00
2022-07-31T08:50:55.977Z,43.48
2022-07-31T08:53:48.950Z,43.42
2022-07-31T08:56:21.611Z,42.20
2022-07-31T08:58:50.433Z,42.39
2022-07-31T09:01:21.093Z,41.06
2022-07-31T09:03:51.255Z,42.38
2022-07-31T09:06:23.078Z,41.57
2022-07-31T09:08:52.357Z,40.87
2022-07-31T09:11:22.507Z,40.68
2022-07-31T09:14:07.233Z,41.02
2022-07-31T09:16:50.531Z,40.28
2022-07-31T09:19:52.132Z,40.00
2022-07-31T09:22:30.840Z,37.96
2022-07-31T09:25:12.076Z,38.28
2022-07-31T09:27:41.880Z,37.31
2022-07-31T09:30:11.923Z,37.85
2022-07-31T09:33:17.258Z,35.99
2022-07-31T09:36:25.133Z,36.56
2022-07-31T09:39:04.215Z,37.31
2022-07-31T09:42:01.097Z,36.22
2022-07-31T09:44:49.872Z,35.71
2022-07-31T09:47:24.008Z,35.92
2022-07-31T09:49:58.583Z,35.34
2022-07-31T09:52:31.395Z,37.56
2022-07-31T09:55:15.955Z,35.55
2022-07-31T09:57:54.320Z,35.71
2022-07-31T10:00:24.309Z,35.84
2022-07-31T10:02:55.606Z,35.56
2022-07-31T10:05:28.426Z,35.18
2022-07-31T10:08:04.189Z,35.27
2022-07-31T10:10:53.004Z,35.04
2022-07-31T10:13:34.953Z,34.25
2022-07-31T10:16:04.708Z,33.13
2022-07-31T10:19:11.598Z,34.43
2022-07-31T10:21:53.080Z,34.11
2022-07-31T10:24:30.227Z,32.61
2022-07-31T10:27:08.081Z,30.12
2022-07-31T10:29:40.276Z,29.21
2022-07-31T10:32:10.349Z,28.48
2022-07-31T10:35:02.468Z,26.99
2022-07-31T10:37:59.348Z,27.04
2022-07-31T10:40:49.152Z,25.33
2022-07-31T10:43:26.889Z,25.00
2022-07-31T10:46:28.820Z,25.08
2022-07-31T10:49:40.714Z,24.25
2022-07-31T10:52:38.315Z,22.60
2022-07-31T10:55:21.959Z,22.79
2022-07-31T10:58:11.801Z,23.41
2022-07-31T11:01:07.863Z,22.89
2022-07-31T11:03:41.242Z,21.56
2022-07-31T11:06:41.144Z,21.38
2022-07-31T11:09:30.230Z,21.80
2022-07-31T11:12:32.827Z,22.73
2022-07-31T11:15:25.411Z,22.67
2022-07-31T11:18:21.999Z,23.73
2022-07-31T11:21:28.858Z,23.24
2022-07-31T11:24:02.973Z,23.47
2022-07-31T11:26:42.025Z,23.13
2022-07-31T11:29:59.900Z,21.89
2022-07-31T11:32:13.161Z,21.79
2022-07-31T11:34:47.682Z,20.91
2022-07-31T11:37:20.667Z,21.46
2022-07-31T11:39:51.429Z,20.20
2022-07-31T11:42:26.475Z,19.88
2022-07-31T11:45:10.954Z,21.79
2022-07-31T11:48:11.033Z,20.86
2022-07-31T11:50:41.146Z,20.20
2022-07-31T11:53:10.092Z,20.13
2022-07-31T11:55:53.317Z,21.01
2022-07-31T11:58:23.674Z,22.38
2022-07-31T12:00:55.953Z,21.63
2022-07-31T12:03:26.935Z,21.79
2022-07-31T12:05:56.261Z,22.71
2022-07-31T12:08:27.199Z,22.31
2022-07-31T12:10:57.872Z,23.23
2022-07-31T12:13:27.387Z,20.99
2022-07-31T12:16:00.123Z,19.27
2022-07-31T12:18:30.369Z,21.46
2022-07-31T12:21:01.879Z,19.26
2022-07-31T12:23:41.838Z,18.58
2022-07-31T12:26:13.993Z,17.42
2022-07-31T12:28:44.090Z,18.23
2022-07-31T12:31:14.621Z,19.43
2022-07-31T12:33:44.408Z,20.33
2022-07-31T12:36:14.929Z,18.72
2022-07-31T12:38:44.994Z,21.75
2022-07-31T12:41:14.987Z,19.40
2022-07-31T12:43:51.949Z,25.29
2022-07-31T12:46:35.919Z,20.66
2022-07-31T12:49:05.341Z,19.15
2022-07-31T12:51:45.793Z,18.26
2022-07-31T12:54:16.965Z,17.95
2022-07-31T12:56:46.805Z,18.77
2022-07-31T12:59:15.926Z,20.16
2022-07-31T13:01:46.163Z,19.92
2022-07-31T13:04:18.958Z,18.08
2022-07-31T13:06:52.185Z,18.29
2022-07-31T13:09:21.778Z,22.16
2022-07-31T13:11:55.838Z,19.60
2022-07-31T13:14:26.336Z,19.13
2022-07-31T13:16:57.423Z,19.30
2022-07-31T13:19:26.199Z,18.16
2022-07-31T13:21:56.907Z,17.90
2022-07-31T13:24:26.630Z,18.91
2022-07-31T13:26:55.609Z,20.09
2022-07-31T13:29:24.522Z,19.84
2022-07-31T13:31:53.652Z,19.60
2022-07-31T13:34:23.939Z,18.94
2022-07-31T13:36:52.902Z,19.21
2022-07-31T13:39:21.610Z,20.36
2022-07-31T13:41:50.613Z,19.36
2022-07-31T13:44:20.210Z,20.28
2022-07-31T13:46:49.200Z,18.47
2022-07-31T13:49:18.204Z,18.87
2022-07-31T13:51:48.438Z,19.14
2022-07-31T13:54:17.582Z,19.25
2022-07-31T13:56:46.519Z,17.67
2022-07-31T13:59:16.314Z,20.44
2022-07-31T14:02:03.221Z,18.58
2022-07-31T14:04:38.630Z,17.54
2022-07-31T14:07:09.894Z,21.17
2022-07-31T14:09:51.377Z,19.26
2022-07-31T14:12:25.330Z,18.47
2022-07-31T14:14:54.284Z,19.45
2022-07-31T14:17:23.831Z,18.13
2022-07-31T14:19:53.167Z,18.28
2022-07-31T14:22:23.630Z,18.83
2022-07-31T14:24:53.248Z,19.37
2022-07-31T14:27:22.400Z,22.59
2022-07-31T14:29:51.354Z,21.74
2022-07-31T14:32:22.470Z,21.77
2022-07-31T14:34:51.898Z,22.01
2022-07-31T14:37:21.345Z,19.55
2022-07-31T14:39:51.726Z,18.73
2022-07-31T14:42:22.239Z,20.12
2022-07-31T14:44:54.564Z,23.77
2022-07-31T14:47:23.739Z,23.47
2022-07-31T14:50:09.796Z,23.32
2022-07-31T14:52:41.257Z,22.37
2022-07-31T14:55:11.700Z,21.13
2022-07-31T14:57:41.095Z,19.57
2022-07-31T15:00:13.528Z,24.27
2022-07-31T15:02:43.165Z,22.53
2022-07-31T15:06:48.708Z,20.25
2022-07-31T15:08:02.649Z,19.88
2022-07-31T15:10:34.745Z,19.52
2022-07-31T15:13:03.614Z,21.29
2022-07-31T15:15:33.834Z,23.78
2022-07-31T15:18:02.780Z,22.61
2022-07-31T15:20:32.997Z,21.37
2022-07-31T15:23:02.603Z,20.44
2022-07-31T15:25:33.433Z,20.79
2022-07-31T15:28:02.198Z,22.80
2022-07-31T15:30:31.065Z,24.53
2022-07-31T15:33:00.082Z,22.12
2022-07-31T15:35:29.499Z,23.44
2022-07-31T15:37:59.579Z,22.17
2022-07-31T15:40:28.475Z,22.65
2022-07-31T15:42:59.758Z,22.56
2022-07-31T15:45:28.770Z,22.58
2022-07-31T15:47:57.714Z,27.16
2022-07-31T15:50:26.811Z,28.64
2022-07-31T15:52:55.600Z,31.13
2022-07-31T15:55:25.041Z,32.08
2022-07-31T15:57:53.882Z,34.58
2022-07-31T16:00:25.358Z,35.21
2022-07-31T16:02:54.413Z,36.42
2022-07-31T16:05:36.499Z,35.61
2022-07-31T16:08:30.113Z,35.79
2022-07-31T16:10:58.680Z,37.74
2022-07-31T16:13:27.491Z,39.54
2022-07-31T16:15:57.894Z,39.46
2022-07-31T16:18:27.122Z,38.64
2022-07-31T16:20:55.970Z,38.86
2022-07-31T16:23:25.797Z,38.98
2022-07-31T16:25:55.277Z,39.57
2022-07-31T16:28:24.109Z,42.06
2022-07-31T16:30:53.858Z,43.18
2022-07-31T16:33:24.638Z,42.20
2022-07-31T16:35:53.445Z,42.56
2022-07-31T16:38:22.270Z,43.42
2022-07-31T16:40:53.516Z,44.74
2022-07-31T16:43:50.319Z,44.15
2022-07-31T16:46:11.832Z,45.71
2022-07-31T16:48:42.589Z,46.93
2022-07-31T16:51:11.391Z,47.67
2022-07-31T16:54:14.352Z,48.08
2022-07-31T16:56:29.899Z,47.49
2022-07-31T16:59:01.464Z,49.89
2022-07-31T17:02:00.142Z,51.41
2022-07-31T17:04:21.117Z,51.62
2022-07-31T17:06:50.450Z,52.57
2022-07-31T17:09:19.599Z,55.12
2022-07-31T17:11:50.097Z,55.13
2022-07-31T17:14:21.508Z,59.83
2022-07-31T17:16:52.489Z,60.06
2022-07-31T17:19:42.725Z,61.45
2022-07-31T17:22:18.577Z,67.36
2022-07-31T17:24:50.993Z,66.01
2022-07-31T17:27:21.318Z,67.47
2022-07-31T17:29:50.530Z,63.49
2022-07-31T17:32:20.019Z,65.97
2022-07-31T17:34:50.508Z,65.43
2022-07-31T17:37:19.883Z,66.69
2022-07-31T17:39:49.664Z,69.04
2022-07-31T17:42:21.630Z,68.58
2022-07-31T17:44:55.250Z,68.17
2022-07-31T17:47:26.023Z,67.44
2022-07-31T17:49:57.059Z,70.39
2022-07-31T17:52:26.774Z,69.71
2022-07-31T17:54:56.223Z,70.10
2022-07-31T17:57:27.868Z,72.10
2022-07-31T17:59:56.888Z,75.78
2022-07-31T18:02:26.139Z,78.11
2022-07-31T18:04:56.516Z,78.12
2022-07-31T18:07:26.377Z,80.47
2022-07-31T18:09:57.356Z,81.84
2022-07-31T18:12:26.711Z,80.47
2022-07-31T18:14:55.963Z,81.13
2022-07-31T18:17:25.708Z,80.88
2022-07-31T18:19:54.450Z,83.78
2022-07-31T18:22:24.678Z,81.82
2022-07-31T18:24:53.515Z,81.79
2022-07-31T18:27:22.575Z,82.25
2022-07-31T18:29:56.024Z,82.66
2022-07-31T18:32:25.554Z,83.60
2022-07-31T18:34:54.421Z,84.71
2022-07-31T18:37:25.031Z,85.02
2022-07-31T18:39:54.247Z,88.78
2022-07-31T18:42:24.142Z,88.12
2022-07-31T18:44:53.190Z,88.36
2022-07-31T18:47:22.240Z,89.24
2022-07-31T18:50:58.187Z,89.73
2022-07-31T18:52:42.543Z,92.06
2022-07-31T18:55:12.107Z,93.73
2022-07-31T18:57:41.813Z,94.76
2022-07-31T19:00:13.169Z,93.24
2022-07-31T19:02:42.508Z,94.81
2022-07-31T19:05:13.687Z,92.90
2022-07-31T19:07:52.827Z,93.03
2022-07-31T19:10:29.120Z,96.82
2022-07-31T19:12:59.336Z,96.10
2022-07-31T19:15:28.622Z,97.03
2022-07-31T19:17:58.752Z,96.81
2022-07-31T19:20:56.328Z,95.21
2022-07-31T19:23:23.870Z,99.52
2022-07-31T19:26:02.392Z,100.00
2022-07-31T19:28:32.528Z,100.00
2022-07-31T19:31:01.969Z,100.00
2022-07-31T19:33:31.144Z,98.36
2022-07-31T19:36:02.601Z,100.00
2022-07-31T19:38:36.862Z,100.00
2022-07-31T19:41:06.623Z,100.00
2022-07-31T19:43:35.888Z,100.00
2022-07-31T19:46:11.894Z,100.00
2022-07-31T19:48:42.883Z,100.00
2022-07-31T19:51:13.537Z,100.00
2022-07-31T19:53:44.895Z,100.00
2022-07-31T19:56:20.449Z,100.00
2022-07-31T19:58:51.333Z,100.00
2022-07-31T20:01:21.745Z,100.00
2022-07-31T20:03:53.591Z,100.00
2022-07-31T20:06:22.846Z,100.00
2022-07-31T20:08:58.745Z,100.00
2022-07-31T20:11:27.747Z,100.00
2022-07-31T20:13:57.206Z,100.00
2022-07-31T20:16:26.307Z,100.00
2022-07-31T20:18:55.203Z,100.00
2022-07-31T20:21:24.129Z,100.00
2022-07-31T20:23:56.669Z,100.00
2022-07-31T20:26:29.461Z,100.00
2022-07-31T20:29:01.818Z,100.00
2022-07-31T20:31:31.333Z,100.00
2022-07-31T20:34:00.292Z,100.00
2022-07-31T20:36:29.903Z,100.00
2022-07-31T20:38:59.193Z,100.00
2022-07-31T20:41:29.453Z,100.00
2022-07-31T20:43:59.856Z,100.00
2022-07-31T20:46:28.829Z,100.00
2022-07-31T20:48:59.279Z,100.00
2022-07-31T20:51:28.202Z,100.00
2022-07-31T20:53:57.107Z,100.00
2022-07-31T20:56:25.970Z,100.00
2022-07-31T20:58:56.305Z,100.00
2022-07-31T21:01:27.139Z,100.00
2022-07-31T21:03:56.065Z,100.00
2022-07-31T21:06:25.005Z,100.00
2022-07-31T21:08:54.507Z,100.00
2022-07-31T21:11:31.641Z,100.00
2022-07-31T21:14:02.973Z,100.00
2022-07-31T21:16:32.065Z,100.00
2022-07-31T21:19:00.920Z,100.00
2022-07-31T21:21:29.749Z,100.00
2022-07-31T21:24:00.987Z,100.00
2022-07-31T21:26:32.307Z,100.00
2022-07-31T21:29:04.259Z,100.00
2022-07-31T21:31:33.706Z,100.00
2022-07-31T21:34:03.250Z,100.00
2022-07-31T21:36:32.995Z,100.00
2022-07-31T21:39:02.320Z,100.00
2022-07-31T21:41:32.996Z,100.00
2022-07-31T21:44:03.863Z,100.00
2022-07-31T21:46:36.736Z,100.00
2022-07-31T21:49:06.225Z,100.00
2022-07-31T21:51:35.515Z,100.00
2022-07-31T21:54:04.345Z,100.00
2022-07-31T21:56:33.536Z,100.00
2022-07-31T21:59:04.256Z,100.00
2022-07-31T22:01:33.362Z,100.00
2022-07-31T22:04:02.258Z,100.00
2022-07-31T22:06:48.606Z,100.00
2022-07-31T22:09:19.120Z,100.00
2022-07-31T22:11:59.995Z,100.00
2022-07-31T22:14:32.110Z,100.00
2022-07-31T22:17:00.923Z,100.00
2022-07-31T22:19:32.742Z,100.00
2022-07-31T22:22:02.525Z,100.00
2022-07-31T22:24:32.028Z,100.00
2022-07-31T22:27:19.199Z,100.00
2022-07-31T22:29:51.206Z,100.00
2022-07-31T22:32:19.988Z,100.00
2022-07-31T22:34:49.108Z,100.00
2022-07-31T22:37:18.180Z,100.00
2022-07-31T22:39:47.806Z,100.00
2022-07-31T22:42:16.741Z,100.00
2022-07-31T22:44:45.777Z,100.00
2022-07-31T22:47:17.811Z,100.00
2022-07-31T22:49:46.818Z,100.00
2022-07-31T22:52:15.765Z,100.00
2022-07-31T22:54:46.174Z,100.00
2022-07-31T22:57:16.019Z,100.00
2022-07-31T22:59:45.639Z,100.00
2022-07-31T23:02:17.490Z,100.00
2022-07-31T23:04:46.719Z,100.00
2022-07-31T23:07:15.599Z,100.00
2022-07-31T23:09:44.499Z,100.00
2022-07-31T23:12:13.288Z,100.00
2022-07-31T23:14:42.278Z,100.00
2022-07-31T23:17:11.072Z,100.00
2022-07-31T23:19:54.456Z,100.00
2022-07-31T23:22:33.404Z,100.00
2022-07-31T23:25:04.559Z,100.00
2022-07-31T23:27:33.766Z,100.00
2022-07-31T23:30:02.866Z,100.00
2022-07-31T23:32:31.706Z,100.00
2022-07-31T23:35:01.846Z,100.00
2022-07-31T23:37:31.105Z,100.00
2022-07-31T23:40:00.220Z,100.00
2022-07-31T23:42:40.819Z,100.00
2022-07-31T23:45:12.434Z,100.00
2022-07-31T23:47:46.174Z,100.00
2022-07-31T23:50:17.737Z,100.00
2022-07-31T23:52:46.825Z,100.00
2022-07-31T23:55:15.731Z,100.00
2022-07-31T23:57:44.620Z,100.00
